Whitetown, Arkansas
Current Conditions -  °F | °C
As of 11:53 AM on Saturday 20 Dec 2014 (Local Time) from KMWT Reporting Station
Overcast Overcast  
Wind Chill: 47°   Ceiling: 1500
Heat Index: 47°   Visibility: 10mi
Dew Point: 40°   Wind: 0mph
Humidity: 77%   Direction: NA
Pressure: 30.21"   Gusts: NA
Location:  34.6364°N, 93.829°W
Report Text: KMWT 201753Z AUTO 00000KT 10SM OVC015 08/04 A3021 RMK AO2 SLP236 T00830044 10083 20050 58004
Loading
Personal Weather Stations






























Interactive Weather Map New forecast layout! Learn more

10-Day Weather Forecast

Advertisements
Track Severe Weather on mobile